Saint Francis River (Missouri), Saco (07036100)

StateMissouriCurrentPotential (167 cfs)
RiverSaint Francis RiverFlood - The river is flooding. Obstacles can be treacherous or deadly. The river should be avoided at this stage for casual trips and definitely for the inexperienced. Trips should be attempted only with protective gear and equipment.Flood(none)
Updated2019-10-14 3:30 (33 minutes ago)High - The river is high and potentially dangerous, especially for the young and / or inexperienced. Normal stream obstacles are sometimes difficult to navigate. Extended distances can be attempted, but canoe travel may not be advisable.High(none)
Discharge167 cfs (median: 43 cfs)Good - Conditions are ideal for a canoe or kayak. Boats typically will drag on fewer than one-quarter of riffles, if at all, and portages are unnecessary or rare. Normal float lengths can be attempted without a problem.Good(none)
Height2.72 feetLow - River is low but can still be floated. Some riffles are okay but most come with significant dragging and might need a portage. Float lengths should be reduced to accommodate low flow, dragging, and portages.Low(none)
TrendFalling (falling over 24 hours)Poor - River is too low to float comfortably. Most or all riffles will drag or must be portaged and some obstacles (such as slick shelf rock) cause undue problems. Avoid the river at this stage for casual paddling trips.Poor(none)
USGSExternal icon USGS Site for Saco (07036100)LocationExternal icon Google Maps

Trending Data

Plot Image
ObservationHeightDischargeMaximum
Discharge
Minimum
Discharge
Mean
Discharge
P05P10P20P25P50
(Median)
P75P80P90P95
2019-10-14 03:30 2.72 167 3680 (1985) 13 (2007) 289 15 21 24 27 43 83 166 699 3170
2019-10-14 03:00 2.73 169 3680 (1985) 13 (2007) 289 15 21 24 27 43 83 166 699 3170
2019-10-14 02:30 2.73 169 3680 (1985) 13 (2007) 289 15 21 24 27 43 83 166 699 3170
2019-10-14 02:00 2.74 172 3680 (1985) 13 (2007) 289 15 21 24 27 43 83 166 699 3170
2019-10-14 01:30 2.76 177 3680 (1985) 13 (2007) 289 15 21 24 27 43 83 166 699 3170
2019-10-14 01:00 2.76 177 3680 (1985) 13 (2007) 289 15 21 24 27 43 83 166 699 3170
2019-10-14 00:30 2.77 179 3680 (1985) 13 (2007) 289 15 21 24 27 43 83 166 699 3170
2019-10-14 00:00 2.78 182 3680 (1985) 13 (2007) 289 15 21 24 27 43 83 166 699 3170
2019-10-13 23:30 2.79 184 1170 (1985) 13 (2007) 138 16 22 25 26 46 80 168 412 994
2019-10-13 23:00 2.80 187 1170 (1985) 13 (2007) 138 16 22 25 26 46 80 168 412 994
2019-10-13 22:30 2.80 187 1170 (1985) 13 (2007) 138 16 22 25 26 46 80 168 412 994
2019-10-13 22:00 2.82 192 1170 (1985) 13 (2007) 138 16 22 25 26 46 80 168 412 994
2019-10-13 21:30 2.83 194 1170 (1985) 13 (2007) 138 16 22 25 26 46 80 168 412 994
2019-10-13 21:00 2.83 194 1170 (1985) 13 (2007) 138 16 22 25 26 46 80 168 412 994
2019-10-13 20:30 2.85 199 1170 (1985) 13 (2007) 138 16 22 25 26 46 80 168 412 994
2019-10-13 20:00 2.86 202 1170 (1985) 13 (2007) 138 16 22 25 26 46 80 168 412 994
2019-10-13 19:30 2.87 205 1170 (1985) 13 (2007) 138 16 22 25 26 46 80 168 412 994
2019-10-13 19:00 2.88 207 1170 (1985) 13 (2007) 138 16 22 25 26 46 80 168 412 994
2019-10-13 18:30 2.89 210 1170 (1985) 13 (2007) 138 16 22 25 26 46 80 168 412 994
2019-10-13 18:00 2.90 213 1170 (1985) 13 (2007) 138 16 22 25 26 46 80 168 412 994
2019-10-13 17:30 2.91 216 1170 (1985) 13 (2007) 138 16 22 25 26 46 80 168 412 994
2019-10-13 17:00 2.92 218 1170 (1985) 13 (2007) 138 16 22 25 26 46 80 168 412 994
2019-10-13 16:30 2.93 221 1170 (1985) 13 (2007) 138 16 22 25 26 46 80 168 412 994
2019-10-13 16:00 2.94 224 1170 (1985) 13 (2007) 138 16 22 25 26 46 80 168 412 994
2019-10-13 15:30 2.96 230 1170 (1985) 13 (2007) 138 16 22 25 26 46 80 168 412 994
2019-10-13 15:00 2.97 232 1170 (1985) 13 (2007) 138 16 22 25 26 46 80 168 412 994
2019-10-13 14:30 2.98 235 1170 (1985) 13 (2007) 138 16 22 25 26 46 80 168 412 994
2019-10-13 14:00 2.99 238 1170 (1985) 13 (2007) 138 16 22 25 26 46 80 168 412 994
2019-10-13 13:30 3.00 241 1170 (1985) 13 (2007) 138 16 22 25 26 46 80 168 412 994
2019-10-13 13:00 3.02 247 1170 (1985) 13 (2007) 138 16 22 25 26 46 80 168 412 994
2019-10-13 12:30 3.02 247 1170 (1985) 13 (2007) 138 16 22 25 26 46 80 168 412 994
2019-10-13 12:00 3.04 253 1170 (1985) 13 (2007) 138 16 22 25 26 46 80 168 412 994
2019-10-13 11:30 3.05 256 1170 (1985) 13 (2007) 138 16 22 25 26 46 80 168 412 994
2019-10-13 11:00 3.06 259 1170 (1985) 13 (2007) 138 16 22 25 26 46 80 168 412 994
2019-10-13 10:30 3.07 262 1170 (1985) 13 (2007) 138 16 22 25 26 46 80 168 412 994
2019-10-13 10:00 3.08 265 1170 (1985) 13 (2007) 138 16 22 25 26 46 80 168 412 994
2019-10-13 09:30 3.09 268 1170 (1985) 13 (2007) 138 16 22 25 26 46 80 168 412 994
2019-10-13 09:00 3.10 271 1170 (1985) 13 (2007) 138 16 22 25 26 46 80 168 412 994
2019-10-13 08:30 3.12 277 1170 (1985) 13 (2007) 138 16 22 25 26 46 80 168 412 994
2019-10-13 08:00 3.13 280 1170 (1985) 13 (2007) 138 16 22 25 26 46 80 168 412 994
2019-10-13 07:30 3.14 284 1170 (1985) 13 (2007) 138 16 22 25 26 46 80 168 412 994
2019-10-13 07:00 3.16 290 1170 (1985) 13 (2007) 138 16 22 25 26 46 80 168 412 994
2019-10-13 06:30 3.17 293 1170 (1985) 13 (2007) 138 16 22 25 26 46 80 168 412 994
2019-10-13 06:00 3.18 296 1170 (1985) 13 (2007) 138 16 22 25 26 46 80 168 412 994
2019-10-13 05:30 3.21 306 1170 (1985) 13 (2007) 138 16 22 25 26 46 80 168 412 994
2019-10-13 05:00 3.22 310 1170 (1985) 13 (2007) 138 16 22 25 26 46 80 168 412 994
2019-10-13 04:30 3.24 316 1170 (1985) 13 (2007) 138 16 22 25 26 46 80 168 412 994
2019-10-13 04:00 3.25 320 1170 (1985) 13 (2007) 138 16 22 25 26 46 80 168 412 994
2019-10-13 03:30 3.27 327 1170 (1985) 13 (2007) 138 16 22 25 26 46 80 168 412 994
2019-10-13 03:00 3.28 330 1170 (1985) 13 (2007) 138 16 22 25 26 46 80 168 412 994
2019-10-13 02:30 3.30 337 1170 (1985) 13 (2007) 138 16 22 25 26 46 80 168 412 994
2019-10-13 02:00 3.32 344 1170 (1985) 13 (2007) 138 16 22 25 26 46 80 168 412 994
2019-10-13 01:30 3.34 351 1170 (1985) 13 (2007) 138 16 22 25 26 46 80 168 412 994
2019-10-13 01:00 3.36 358 1170 (1985) 13 (2007) 138 16 22 25 26 46 80 168 412 994
2019-10-13 00:30 3.38 365 1170 (1985) 13 (2007) 138 16 22 25 26 46 80 168 412 994
2019-10-13 00:00 3.40 373 1170 (1985) 13 (2007) 138 16 22 25 26 46 80 168 412 994
2019-10-12 23:30 3.42 380 1150 (1985) 14 (2007) 130 15 21 25 26 49 79 189 345 877
2019-10-12 23:00 3.44 388 1150 (1985) 14 (2007) 130 15 21 25 26 49 79 189 345 877
2019-10-12 22:30 3.46 395 1150 (1985) 14 (2007) 130 15 21 25 26 49 79 189 345 877
2019-10-12 22:00 3.49 407 1150 (1985) 14 (2007) 130 15 21 25 26 49 79 189 345 877
2019-10-12 21:30 3.51 414 1150 (1985) 14 (2007) 130 15 21 25 26 49 79 189 345 877
2019-10-12 21:00 3.53 422 1150 (1985) 14 (2007) 130 15 21 25 26 49 79 189 345 877
2019-10-12 20:30 3.56 434 1150 (1985) 14 (2007) 130 15 21 25 26 49 79 189 345 877
2019-10-12 20:00 3.59 446 1150 (1985) 14 (2007) 130 15 21 25 26 49 79 189 345 877
2019-10-12 19:30 3.62 458 1150 (1985) 14 (2007) 130 15 21 25 26 49 79 189 345 877
2019-10-12 19:00 3.64 467 1150 (1985) 14 (2007) 130 15 21 25 26 49 79 189 345 877
2019-10-12 18:30 3.67 479 1150 (1985) 14 (2007) 130 15 21 25 26 49 79 189 345 877
2019-10-12 18:00 3.70 492 1150 (1985) 14 (2007) 130 15 21 25 26 49 79 189 345 877
2019-10-12 17:30 3.74 509 1150 (1985) 14 (2007) 130 15 21 25 26 49 79 189 345 877
2019-10-12 17:00 3.77 522 1150 (1985) 14 (2007) 130 15 21 25 26 49 79 189 345 877
2019-10-12 16:30 3.81 540 1150 (1985) 14 (2007) 130 15 21 25 26 49 79 189 345 877
2019-10-12 16:00 3.85 558 1150 (1985) 14 (2007) 130 15 21 25 26 49 79 189 345 877
2019-10-12 15:30 3.88 572 1150 (1985) 14 (2007) 130 15 21 25 26 49 79 189 345 877
2019-10-12 15:00 3.93 596 1150 (1985) 14 (2007) 130 15 21 25 26 49 79 189 345 877
2019-10-12 14:30 3.97 615 1150 (1985) 14 (2007) 130 15 21 25 26 49 79 189 345 877
2019-10-12 14:00 4.01 634 1150 (1985) 14 (2007) 130 15 21 25 26 49 79 189 345 877
2019-10-12 13:30 4.06 659 1150 (1985) 14 (2007) 130 15 21 25 26 49 79 189 345 877
2019-10-12 13:00 4.11 684 1150 (1985) 14 (2007) 130 15 21 25 26 49 79 189 345 877
2019-10-12 12:30 4.17 715 1150 (1985) 14 (2007) 130 15 21 25 26 49 79 189 345 877
2019-10-12 12:00 4.23 747 1150 (1985) 14 (2007) 130 15 21 25 26 49 79 189 345 877
2019-10-12 11:30 4.29 779 1150 (1985) 14 (2007) 130 15 21 25 26 49 79 189 345 877
2019-10-12 11:00 4.35 812 1150 (1985) 14 (2007) 130 15 21 25 26 49 79 189 345 877
2019-10-12 10:30 4.43 858 1150 (1985) 14 (2007) 130 15 21 25 26 49 79 189 345 877
2019-10-12 10:00 4.50 899 1150 (1985) 14 (2007) 130 15 21 25 26 49 79 189 345 877
2019-10-12 09:30 4.58 946 1150 (1985) 14 (2007) 130 15 21 25 26 49 79 189 345 877
2019-10-12 09:00 4.66 996 1150 (1985) 14 (2007) 130 15 21 25 26 49 79 189 345 877
2019-10-12 08:30 4.73 1040 1150 (1985) 14 (2007) 130 15 21 25 26 49 79 189 345 877
2019-10-12 08:00 4.81 1090 1150 (1985) 14 (2007) 130 15 21 25 26 49 79 189 345 877
2019-10-12 07:30 4.89 1140 1150 (1985) 14 (2007) 130 15 21 25 26 49 79 189 345 877
2019-10-12 07:00 4.96 1190 1150 (1985) 14 (2007) 130 15 21 25 26 49 79 189 345 877
2019-10-12 06:30 5.03 1240 1150 (1985) 14 (2007) 130 15 21 25 26 49 79 189 345 877
2019-10-12 06:00 5.07 1270 1150 (1985) 14 (2007) 130 15 21 25 26 49 79 189 345 877
2019-10-12 05:30 5.11 1290 1150 (1985) 14 (2007) 130 15 21 25 26 49 79 189 345 877
2019-10-12 05:00 5.12 1300 1150 (1985) 14 (2007) 130 15 21 25 26 49 79 189 345 877
2019-10-12 04:30 5.07 1270 1150 (1985) 14 (2007) 130 15 21 25 26 49 79 189 345 877
2019-10-12 04:00 4.95 1190 1150 (1985) 14 (2007) 130 15 21 25 26 49 79 189 345 877
2019-10-12 03:30 4.61 965 1150 (1985) 14 (2007) 130 15 21 25 26 49 79 189 345 877
2019-10-12 03:00 4.06 659 1150 (1985) 14 (2007) 130 15 21 25 26 49 79 189 345 877
2019-10-12 02:30 3.29 333 1150 (1985) 14 (2007) 130 15 21 25 26 49 79 189 345 877
2019-10-12 02:00 2.69 160 1150 (1985) 14 (2007) 130 15 21 25 26 49 79 189 345 877
2019-10-12 01:30 2.55 131 1150 (1985) 14 (2007) 130 15 21 25 26 49 79 189 345 877
2019-10-12 01:00 2.52 125 1150 (1985) 14 (2007) 130 15 21 25 26 49 79 189 345 877
2019-10-12 00:30 2.48 118 1150 (1985) 14 (2007) 130 15 21 25 26 49 79 189 345 877
2019-10-12 00:00 2.45 112 1150 (1985) 14 (2007) 130 15 21 25 26 49 79 189 345 877
2019-10-11 23:30 2.41 105 818 (2010) 15 (2018) 135 15 18 27 28 49 75 185 538 789
2019-10-11 23:00 2.37 99 818 (2010) 15 (2018) 135 15 18 27 28 49 75 185 538 789
2019-10-11 22:30 2.34 94 818 (2010) 15 (2018) 135 15 18 27 28 49 75 185 538 789
2019-10-11 22:00 2.32 90 818 (2010) 15 (2018) 135 15 18 27 28 49 75 185 538 789
2019-10-11 21:30 2.30 87 818 (2010) 15 (2018) 135 15 18 27 28 49 75 185 538 789
2019-10-11 21:00 2.29 86 818 (2010) 15 (2018) 135 15 18 27 28 49 75 185 538 789
2019-10-11 20:30 2.29 86 818 (2010) 15 (2018) 135 15 18 27 28 49 75 185 538 789
2019-10-11 20:00 2.29 86 818 (2010) 15 (2018) 135 15 18 27 28 49 75 185 538 789
2019-10-11 19:30 2.29 86 818 (2010) 15 (2018) 135 15 18 27 28 49 75 185 538 789
2019-10-11 19:00 2.30 87 818 (2010) 15 (2018) 135 15 18 27 28 49 75 185 538 789
2019-10-11 18:30 2.31 89 818 (2010) 15 (2018) 135 15 18 27 28 49 75 185 538 789
2019-10-11 18:00 2.32 90 818 (2010) 15 (2018) 135 15 18 27 28 49 75 185 538 789
2019-10-11 17:30 2.33 92 818 (2010) 15 (2018) 135 15 18 27 28 49 75 185 538 789
2019-10-11 17:00 2.33 92 818 (2010) 15 (2018) 135 15 18 27 28 49 75 185 538 789
2019-10-11 16:30 2.34 94 818 (2010) 15 (2018) 135 15 18 27 28 49 75 185 538 789
2019-10-11 16:00 2.34 94 818 (2010) 15 (2018) 135 15 18 27 28 49 75 185 538 789
2019-10-11 15:30 2.34 94 818 (2010) 15 (2018) 135 15 18 27 28 49 75 185 538 789
2019-10-11 15:00 2.33 92 818 (2010) 15 (2018) 135 15 18 27 28 49 75 185 538 789
2019-10-11 14:30 2.33 92 818 (2010) 15 (2018) 135 15 18 27 28 49 75 185 538 789
2019-10-11 14:00 2.32 90 818 (2010) 15 (2018) 135 15 18 27 28 49 75 185 538 789
2019-10-11 13:30 2.31 89 818 (2010) 15 (2018) 135 15 18 27 28 49 75 185 538 789
2019-10-11 13:00 2.29 86 818 (2010) 15 (2018) 135 15 18 27 28 49 75 185 538 789
2019-10-11 12:30 2.27 83 818 (2010) 15 (2018) 135 15 18 27 28 49 75 185 538 789
2019-10-11 12:00 2.25 80 818 (2010) 15 (2018) 135 15 18 27 28 49 75 185 538 789
2019-10-11 11:30 2.24 78 818 (2010) 15 (2018) 135 15 18 27 28 49 75 185 538 789
2019-10-11 11:00 2.23 77 818 (2010) 15 (2018) 135 15 18 27 28 49 75 185 538 789
2019-10-11 10:30 2.21 74 818 (2010) 15 (2018) 135 15 18 27 28 49 75 185 538 789
2019-10-11 10:00 2.20 72 818 (2010) 15 (2018) 135 15 18 27 28 49 75 185 538 789
2019-10-11 09:30 2.19 71 818 (2010) 15 (2018) 135 15 18 27 28 49 75 185 538 789
2019-10-11 09:00 2.17 68 818 (2010) 15 (2018) 135 15 18 27 28 49 75 185 538 789
2019-10-11 08:30 2.16 67 818 (2010) 15 (2018) 135 15 18 27 28 49 75 185 538 789
2019-10-11 08:00 2.16 67 818 (2010) 15 (2018) 135 15 18 27 28 49 75 185 538 789
2019-10-11 07:30 2.17 68 818 (2010) 15 (2018) 135 15 18 27 28 49 75 185 538 789
2019-10-11 07:00 2.18 70 818 (2010) 15 (2018) 135 15 18 27 28 49 75 185 538 789
2019-10-11 06:30 2.20 72 818 (2010) 15 (2018) 135 15 18 27 28 49 75 185 538 789
2019-10-11 06:00 2.20 72 818 (2010) 15 (2018) 135 15 18 27 28 49 75 185 538 789
2019-10-11 05:30 2.19 71 818 (2010) 15 (2018) 135 15 18 27 28 49 75 185 538 789
2019-10-11 05:00 2.09 58 818 (2010) 15 (2018) 135 15 18 27 28 49 75 185 538 789
2019-10-11 04:30 1.97 44 818 (2010) 15 (2018) 135 15 18 27 28 49 75 185 538 789
2019-10-11 04:00 1.95 42 818 (2010) 15 (2018) 135 15 18 27 28 49 75 185 538 789
2019-10-11 03:30 1.95 42 818 (2010) 15 (2018) 135 15 18 27 28 49 75 185 538 789
2019-10-11 03:00 1.94 41 818 (2010) 15 (2018) 135 15 18 27 28 49 75 185 538 789
2019-10-11 02:30 1.94 41 818 (2010) 15 (2018) 135 15 18 27 28 49 75 185 538 789
2019-10-11 02:00 1.94 41 818 (2010) 15 (2018) 135 15 18 27 28 49 75 185 538 789
2019-10-11 01:30 1.94 41 818 (2010) 15 (2018) 135 15 18 27 28 49 75 185 538 789
2019-10-11 01:00 1.93 40 818 (2010) 15 (2018) 135 15 18 27 28 49 75 185 538 789
2019-10-11 00:30 1.93 40 818 (2010) 15 (2018) 135 15 18 27 28 49 75 185 538 789
2019-10-11 00:00 1.92 39 818 (2010) 15 (2018) 135 15 18 27 28 49 75 185 538 789
2019-10-10 23:30 1.87 34 2490 (2010) 16 (2007) 178 16 19 28 28 52 85 124 440 1670
2019-10-10 23:00 1.87 34 2490 (2010) 16 (2007) 178 16 19 28 28 52 85 124 440 1670
2019-10-10 22:30 1.87 34 2490 (2010) 16 (2007) 178 16 19 28 28 52 85 124 440 1670
2019-10-10 22:00 1.87 34 2490 (2010) 16 (2007) 178 16 19 28 28 52 85 124 440 1670
2019-10-10 21:30 1.87 34 2490 (2010) 16 (2007) 178 16 19 28 28 52 85 124 440 1670
2019-10-10 21:00 1.87 34 2490 (2010) 16 (2007) 178 16 19 28 28 52 85 124 440 1670
2019-10-10 20:30 1.87 34 2490 (2010) 16 (2007) 178 16 19 28 28 52 85 124 440 1670
2019-10-10 20:00 1.87 34 2490 (2010) 16 (2007) 178 16 19 28 28 52 85 124 440 1670
2019-10-10 19:30 1.87 34 2490 (2010) 16 (2007) 178 16 19 28 28 52 85 124 440 1670
2019-10-10 19:00 1.87 34 2490 (2010) 16 (2007) 178 16 19 28 28 52 85 124 440 1670
2019-10-10 18:30 1.87 34 2490 (2010) 16 (2007) 178 16 19 28 28 52 85 124 440 1670
2019-10-10 18:00 1.87 34 2490 (2010) 16 (2007) 178 16 19 28 28 52 85 124 440 1670
2019-10-10 17:30 1.87 34 2490 (2010) 16 (2007) 178 16 19 28 28 52 85 124 440 1670
2019-10-10 17:00 1.87 34 2490 (2010) 16 (2007) 178 16 19 28 28 52 85 124 440 1670
2019-10-10 16:30 1.87 34 2490 (2010) 16 (2007) 178 16 19 28 28 52 85 124 440 1670
2019-10-10 16:00 1.87 34 2490 (2010) 16 (2007) 178 16 19 28 28 52 85 124 440 1670
2019-10-10 15:30 1.87 44 2490 (2010) 16 (2007) 178 16 19 28 28 52 85 124 440 1670
2019-10-10 15:00 1.87 44 2490 (2010) 16 (2007) 178 16 19 28 28 52 85 124 440 1670
2019-10-10 14:30 1.87 44 2490 (2010) 16 (2007) 178 16 19 28 28 52 85 124 440 1670
2019-10-10 14:00 1.86 43 2490 (2010) 16 (2007) 178 16 19 28 28 52 85 124 440 1670
2019-10-10 13:30 1.87 44 2490 (2010) 16 (2007) 178 16 19 28 28 52 85 124 440 1670
2019-10-10 13:00 1.87 44 2490 (2010) 16 (2007) 178 16 19 28 28 52 85 124 440 1670
2019-10-10 12:30 1.87 44 2490 (2010) 16 (2007) 178 16 19 28 28 52 85 124 440 1670
2019-10-10 12:00 1.87 44 2490 (2010) 16 (2007) 178 16 19 28 28 52 85 124 440 1670
2019-10-10 11:30 1.87 44 2490 (2010) 16 (2007) 178 16 19 28 28 52 85 124 440 1670
2019-10-10 11:00 1.87 44 2490 (2010) 16 (2007) 178 16 19 28 28 52 85 124 440 1670
2019-10-10 10:30 1.86 43 2490 (2010) 16 (2007) 178 16 19 28 28 52 85 124 440 1670
2019-10-10 10:00 1.86 43 2490 (2010) 16 (2007) 178 16 19 28 28 52 85 124 440 1670
2019-10-10 09:30 1.86 43 2490 (2010) 16 (2007) 178 16 19 28 28 52 85 124 440 1670
2019-10-10 09:00 1.86 43 2490 (2010) 16 (2007) 178 16 19 28 28 52 85 124 440 1670
2019-10-10 08:30 1.86 43 2490 (2010) 16 (2007) 178 16 19 28 28 52 85 124 440 1670
2019-10-10 08:00 1.86 43 2490 (2010) 16 (2007) 178 16 19 28 28 52 85 124 440 1670
2019-10-10 07:30 1.86 43 2490 (2010) 16 (2007) 178 16 19 28 28 52 85 124 440 1670
2019-10-10 07:00 1.86 43 2490 (2010) 16 (2007) 178 16 19 28 28 52 85 124 440 1670
2019-10-10 06:30 1.86 43 2490 (2010) 16 (2007) 178 16 19 28 28 52 85 124 440 1670
2019-10-10 06:00 1.86 43 2490 (2010) 16 (2007) 178 16 19 28 28 52 85 124 440 1670
2019-10-10 05:30 1.86 43 2490 (2010) 16 (2007) 178 16 19 28 28 52 85 124 440 1670
2019-10-10 05:00 1.86 43 2490 (2010) 16 (2007) 178 16 19 28 28 52 85 124 440 1670
2019-10-10 04:30 1.86 43 2490 (2010) 16 (2007) 178 16 19 28 28 52 85 124 440 1670
2019-10-10 04:00 1.86 43 2490 (2010) 16 (2007) 178 16 19 28 28 52 85 124 440 1670
2019-10-10 03:30 1.86 43 2490 (2010) 16 (2007) 178 16 19 28 28 52 85 124 440 1670
2019-10-10 03:00 1.87 44 2490 (2010) 16 (2007) 178 16 19 28 28 52 85 124 440 1670
2019-10-10 02:30 1.86 43 2490 (2010) 16 (2007) 178 16 19 28 28 52 85 124 440 1670
2019-10-10 02:00 1.86 43 2490 (2010) 16 (2007) 178 16 19 28 28 52 85 124 440 1670
2019-10-10 01:30 1.86 43 2490 (2010) 16 (2007) 178 16 19 28 28 52 85 124 440 1670
2019-10-10 01:00 1.86 43 2490 (2010) 16 (2007) 178 16 19 28 28 52 85 124 440 1670
2019-10-10 00:30 1.87 44 2490 (2010) 16 (2007) 178 16 19 28 28 52 85 124 440 1670
2019-10-10 00:00 1.86 43 2490 (2010) 16 (2007) 178 16 19 28 28 52 85 124 440 1670
2019-10-09 23:30 1.87 44 2470 (2010) 15 (2018) 171 15 18 28 29 58 97 119 401 1640
2019-10-09 23:00 1.86 43 2470 (2010) 15 (2018) 171 15 18 28 29 58 97 119 401 1640
2019-10-09 22:30 1.86 43 2470 (2010) 15 (2018) 171 15 18 28 29 58 97 119 401 1640
2019-10-09 22:00 1.86 43 2470 (2010) 15 (2018) 171 15 18 28 29 58 97 119 401 1640
2019-10-09 21:30 1.87 44 2470 (2010) 15 (2018) 171 15 18 28 29 58 97 119 401 1640
2019-10-09 21:00 1.86 43 2470 (2010) 15 (2018) 171 15 18 28 29 58 97 119 401 1640
2019-10-09 20:30 1.87 44 2470 (2010) 15 (2018) 171 15 18 28 29 58 97 119 401 1640
2019-10-09 20:00 1.87 44 2470 (2010) 15 (2018) 171 15 18 28 29 58 97 119 401 1640
2019-10-09 19:30 1.87 44 2470 (2010) 15 (2018) 171 15 18 28 29 58 97 119 401 1640
2019-10-09 19:00 1.87 44 2470 (2010) 15 (2018) 171 15 18 28 29 58 97 119 401 1640
2019-10-09 18:30 1.87 44 2470 (2010) 15 (2018) 171 15 18 28 29 58 97 119 401 1640
2019-10-09 18:00 1.87 44 2470 (2010) 15 (2018) 171 15 18 28 29 58 97 119 401 1640
2019-10-09 17:30 1.87 44 2470 (2010) 15 (2018) 171 15 18 28 29 58 97 119 401 1640
2019-10-09 17:00 1.87 44 2470 (2010) 15 (2018) 171 15 18 28 29 58 97 119 401 1640
2019-10-09 16:30 1.87 44 2470 (2010) 15 (2018) 171 15 18 28 29 58 97 119 401 1640
2019-10-09 16:00 1.88 45 2470 (2010) 15 (2018) 171 15 18 28 29 58 97 119 401 1640
2019-10-09 15:30 1.88 45 2470 (2010) 15 (2018) 171 15 18 28 29 58 97 119 401 1640
2019-10-09 15:00 1.88 45 2470 (2010) 15 (2018) 171 15 18 28 29 58 97 119 401 1640
2019-10-09 14:30 1.88 45 2470 (2010) 15 (2018) 171 15 18 28 29 58 97 119 401 1640
2019-10-09 14:00 1.88 45 2470 (2010) 15 (2018) 171 15 18 28 29 58 97 119 401 1640
2019-10-09 13:30 1.89 46 2470 (2010) 15 (2018) 171 15 18 28 29 58 97 119 401 1640
2019-10-09 13:00 1.88 45 2470 (2010) 15 (2018) 171 15 18 28 29 58 97 119 401 1640
2019-10-09 12:30 1.88 45 2470 (2010) 15 (2018) 171 15 18 28 29 58 97 119 401 1640
2019-10-09 12:00 1.88 45 2470 (2010) 15 (2018) 171 15 18 28 29 58 97 119 401 1640
2019-10-09 11:30 1.88 45 2470 (2010) 15 (2018) 171 15 18 28 29 58 97 119 401 1640
2019-10-09 11:00 1.88 45 2470 (2010) 15 (2018) 171 15 18 28 29 58 97 119 401 1640
2019-10-09 10:30 1.88 45 2470 (2010) 15 (2018) 171 15 18 28 29 58 97 119 401 1640
2019-10-09 10:00 1.87 44 2470 (2010) 15 (2018) 171 15 18 28 29 58 97 119 401 1640
2019-10-09 09:30 1.87 44 2470 (2010) 15 (2018) 171 15 18 28 29 58 97 119 401 1640
2019-10-09 09:00 1.87 44 2470 (2010) 15 (2018) 171 15 18 28 29 58 97 119 401 1640
2019-10-09 08:30 1.87 44 2470 (2010) 15 (2018) 171 15 18 28 29 58 97 119 401 1640
2019-10-09 08:00 1.87 44 2470 (2010) 15 (2018) 171 15 18 28 29 58 97 119 401 1640
2019-10-09 07:30 1.87 44 2470 (2010) 15 (2018) 171 15 18 28 29 58 97 119 401 1640
2019-10-09 07:00 1.87 44 2470 (2010) 15 (2018) 171 15 18 28 29 58 97 119 401 1640
2019-10-09 06:30 1.87 44 2470 (2010) 15 (2018) 171 15 18 28 29 58 97 119 401 1640
2019-10-09 06:00 1.87 44 2470 (2010) 15 (2018) 171 15 18 28 29 58 97 119 401 1640
2019-10-09 05:30 1.87 44 2470 (2010) 15 (2018) 171 15 18 28 29 58 97 119 401 1640
2019-10-09 05:00 1.87 44 2470 (2010) 15 (2018) 171 15 18 28 29 58 97 119 401 1640
2019-10-09 04:30 1.87 44 2470 (2010) 15 (2018) 171 15 18 28 29 58 97 119 401 1640
2019-10-09 04:00 1.87 44 2470 (2010) 15 (2018) 171 15 18 28 29 58 97 119 401 1640
2019-10-09 03:30 1.88 45 2470 (2010) 15 (2018) 171 15 18 28 29 58 97 119 401 1640
2019-10-09 03:00 1.88 45 2470 (2010) 15 (2018) 171 15 18 28 29 58 97 119 401 1640
2019-10-09 02:30 1.88 45 2470 (2010) 15 (2018) 171 15 18 28 29 58 97 119 401 1640
2019-10-09 02:00 1.87 44 2470 (2010) 15 (2018) 171 15 18 28 29 58 97 119 401 1640
2019-10-09 01:30 1.87 44 2470 (2010) 15 (2018) 171 15 18 28 29 58 97 119 401 1640
2019-10-09 01:00 1.87 44 2470 (2010) 15 (2018) 171 15 18 28 29 58 97 119 401 1640
2019-10-09 00:30 1.88 45 2470 (2010) 15 (2018) 171 15 18 28 29 58 97 119 401 1640
2019-10-09 00:00 1.88 45 2470 (2010) 15 (2018) 171 15 18 28 29 58 97 119 401 1640
2019-10-08 23:30 1.87 44 459 (1994) 12 (2018) 75 14 17 27 30 55 88 96 140 345
2019-10-08 23:00 1.88 45 459 (1994) 12 (2018) 75 14 17 27 30 55 88 96 140 345
2019-10-08 22:30 1.88 45 459 (1994) 12 (2018) 75 14 17 27 30 55 88 96 140 345
2019-10-08 22:00 1.88 45 459 (1994) 12 (2018) 75 14 17 27 30 55 88 96 140 345
2019-10-08 21:30 1.88 45 459 (1994) 12 (2018) 75 14 17 27 30 55 88 96 140 345
2019-10-08 21:00 1.88 45 459 (1994) 12 (2018) 75 14 17 27 30 55 88 96 140 345
2019-10-08 20:30 1.88 45 459 (1994) 12 (2018) 75 14 17 27 30 55 88 96 140 345
2019-10-08 20:00 1.89 46 459 (1994) 12 (2018) 75 14 17 27 30 55 88 96 140 345
2019-10-08 19:30 1.89 46 459 (1994) 12 (2018) 75 14 17 27 30 55 88 96 140 345
2019-10-08 19:00 1.88 45 459 (1994) 12 (2018) 75 14 17 27 30 55 88 96 140 345
2019-10-08 18:30 1.88 45 459 (1994) 12 (2018) 75 14 17 27 30 55 88 96 140 345
2019-10-08 18:00 1.89 46 459 (1994) 12 (2018) 75 14 17 27 30 55 88 96 140 345
2019-10-08 17:30 1.89 46 459 (1994) 12 (2018) 75 14 17 27 30 55 88 96 140 345
2019-10-08 17:00 1.89 46 459 (1994) 12 (2018) 75 14 17 27 30 55 88 96 140 345
2019-10-08 16:30 1.89 46 459 (1994) 12 (2018) 75 14 17 27 30 55 88 96 140 345
2019-10-08 16:00 1.90 47 459 (1994) 12 (2018) 75 14 17 27 30 55 88 96 140 345
2019-10-08 15:30 1.90 47 459 (1994) 12 (2018) 75 14 17 27 30 55 88 96 140 345
2019-10-08 15:00 1.89 46 459 (1994) 12 (2018) 75 14 17 27 30 55 88 96 140 345
2019-10-08 14:30 1.89 46 459 (1994) 12 (2018) 75 14 17 27 30 55 88 96 140 345
2019-10-08 14:00 1.90 47 459 (1994) 12 (2018) 75 14 17 27 30 55 88 96 140 345
2019-10-08 13:30 1.90 47 459 (1994) 12 (2018) 75 14 17 27 30 55 88 96 140 345
2019-10-08 13:00 1.90 47 459 (1994) 12 (2018) 75 14 17 27 30 55 88 96 140 345
2019-10-08 12:30 1.90 47 459 (1994) 12 (2018) 75 14 17 27 30 55 88 96 140 345
2019-10-08 12:00 1.89 46 459 (1994) 12 (2018) 75 14 17 27 30 55 88 96 140 345
2019-10-08 11:30 1.89 46 459 (1994) 12 (2018) 75 14 17 27 30 55 88 96 140 345
2019-10-08 11:00 1.88 45 459 (1994) 12 (2018) 75 14 17 27 30 55 88 96 140 345
2019-10-08 10:30 1.89 46 459 (1994) 12 (2018) 75 14 17 27 30 55 88 96 140 345
2019-10-08 10:00 1.88 45 459 (1994) 12 (2018) 75 14 17 27 30 55 88 96 140 345
2019-10-08 09:30 1.88 45 459 (1994) 12 (2018) 75 14 17 27 30 55 88 96 140 345
2019-10-08 09:00 1.88 45 459 (1994) 12 (2018) 75 14 17 27 30 55 88 96 140 345
2019-10-08 08:30 1.88 45 459 (1994) 12 (2018) 75 14 17 27 30 55 88 96 140 345
2019-10-08 08:00 1.87 44 459 (1994) 12 (2018) 75 14 17 27 30 55 88 96 140 345
2019-10-08 07:30 1.88 45 459 (1994) 12 (2018) 75 14 17 27 30 55 88 96 140 345
2019-10-08 07:00 1.87 44 459 (1994) 12 (2018) 75 14 17 27 30 55 88 96 140 345
2019-10-08 06:30 1.88 45 459 (1994) 12 (2018) 75 14 17 27 30 55 88 96 140 345
2019-10-08 06:00 1.88 45 459 (1994) 12 (2018) 75 14 17 27 30 55 88 96 140 345
2019-10-08 05:30 1.87 44 459 (1994) 12 (2018) 75 14 17 27 30 55 88 96 140 345
2019-10-08 05:00 1.87 44 459 (1994) 12 (2018) 75 14 17 27 30 55 88 96 140 345
2019-10-08 04:30 1.87 44 459 (1994) 12 (2018) 75 14 17 27 30 55 88 96 140 345
2019-10-08 04:00 1.87 44 459 (1994) 12 (2018) 75 14 17 27 30 55 88 96 140 345
2019-10-08 03:30 1.87 44 459 (1994) 12 (2018) 75 14 17 27 30 55 88 96 140 345
2019-10-08 03:00 1.87 44 459 (1994) 12 (2018) 75 14 17 27 30 55 88 96 140 345
2019-10-08 02:30 1.87 44 459 (1994) 12 (2018) 75 14 17 27 30 55 88 96 140 345
2019-10-08 02:00 1.86 43 459 (1994) 12 (2018) 75 14 17 27 30 55 88 96 140 345
2019-10-08 01:30 1.87 44 459 (1994) 12 (2018) 75 14 17 27 30 55 88 96 140 345
2019-10-08 01:00 1.87 44 459 (1994) 12 (2018) 75 14 17 27 30 55 88 96 140 345
2019-10-08 00:30 1.87 44 459 (1994) 12 (2018) 75 14 17 27 30 55 88 96 140 345
2019-10-08 00:00 1.86 43 459 (1994) 12 (2018) 75 14 17 27 30 55 88 96 140 345
2019-10-07 23:30 1.87 44 545 (1994) 13 (2018) 79 13 18 27 31 46 86 100 147 411
2019-10-07 23:00 1.86 43 545 (1994) 13 (2018) 79 13 18 27 31 46 86 100 147 411
2019-10-07 22:30 1.86 43 545 (1994) 13 (2018) 79 13 18 27 31 46 86 100 147 411
2019-10-07 22:00 1.87 44 545 (1994) 13 (2018) 79 13 18 27 31 46 86 100 147 411
2019-10-07 21:30 1.86 43 545 (1994) 13 (2018) 79 13 18 27 31 46 86 100 147 411
2019-10-07 21:00 1.86 43 545 (1994) 13 (2018) 79 13 18 27 31 46 86 100 147 411
2019-10-07 20:30 1.86 43 545 (1994) 13 (2018) 79 13 18 27 31 46 86 100 147 411
2019-10-07 20:00 1.86 43 545 (1994) 13 (2018) 79 13 18 27 31 46 86 100 147 411
2019-10-07 19:30 1.86 43 545 (1994) 13 (2018) 79 13 18 27 31 46 86 100 147 411
2019-10-07 19:00 1.86 43 545 (1994) 13 (2018) 79 13 18 27 31 46 86 100 147 411
2019-10-07 18:30 1.86 43 545 (1994) 13 (2018) 79 13 18 27 31 46 86 100 147 411
2019-10-07 18:00 1.87 44 545 (1994) 13 (2018) 79 13 18 27 31 46 86 100 147 411
2019-10-07 17:30 1.86 43 545 (1994) 13 (2018) 79 13 18 27 31 46 86 100 147 411
2019-10-07 17:00 1.87 44 545 (1994) 13 (2018) 79 13 18 27 31 46 86 100 147 411
2019-10-07 16:30 1.87 44 545 (1994) 13 (2018) 79 13 18 27 31 46 86 100 147 411
2019-10-07 16:00 1.87 44 545 (1994) 13 (2018) 79 13 18 27 31 46 86 100 147 411
2019-10-07 15:30 1.87 44 545 (1994) 13 (2018) 79 13 18 27 31 46 86 100 147 411
2019-10-07 15:00 1.88 45 545 (1994) 13 (2018) 79 13 18 27 31 46 86 100 147 411
2019-10-07 14:30 1.87 44 545 (1994) 13 (2018) 79 13 18 27 31 46 86 100 147 411
2019-10-07 14:00 1.87 44 545 (1994) 13 (2018) 79 13 18 27 31 46 86 100 147 411
2019-10-07 13:30 1.87 44 545 (1994) 13 (2018) 79 13 18 27 31 46 86 100 147 411
2019-10-07 13:00 1.87 44 545 (1994) 13 (2018) 79 13 18 27 31 46 86 100 147 411
2019-10-07 12:30 1.87 44 545 (1994) 13 (2018) 79 13 18 27 31 46 86 100 147 411
2019-10-07 12:00 1.87 44 545 (1994) 13 (2018) 79 13 18 27 31 46 86 100 147 411
2019-10-07 11:30 1.87 44 545 (1994) 13 (2018) 79 13 18 27 31 46 86 100 147 411
2019-10-07 11:00 1.87 44 545 (1994) 13 (2018) 79 13 18 27 31 46 86 100 147 411
2019-10-07 10:30 1.86 43 545 (1994) 13 (2018) 79 13 18 27 31 46 86 100 147 411
2019-10-07 10:00 1.86 43 545 (1994) 13 (2018) 79 13 18 27 31 46 86 100 147 411
2019-10-07 09:30 1.85 42 545 (1994) 13 (2018) 79 13 18 27 31 46 86 100 147 411
2019-10-07 09:00 1.86 43 545 (1994) 13 (2018) 79 13 18 27 31 46 86 100 147 411
2019-10-07 08:30 1.86 43 545 (1994) 13 (2018) 79 13 18 27 31 46 86 100 147 411
2019-10-07 08:00 1.86 43 545 (1994) 13 (2018) 79 13 18 27 31 46 86 100 147 411
2019-10-07 07:30 1.86 43 545 (1994) 13 (2018) 79 13 18 27 31 46 86 100 147 411
2019-10-07 07:00 1.86 43 545 (1994) 13 (2018) 79 13 18 27 31 46 86 100 147 411
2019-10-07 06:30 1.86 43 545 (1994) 13 (2018) 79 13 18 27 31 46 86 100 147 411
2019-10-07 06:00 1.86 43 545 (1994) 13 (2018) 79 13 18 27 31 46 86 100 147 411
2019-10-07 05:30 1.86 43 545 (1994) 13 (2018) 79 13 18 27 31 46 86 100 147 411
2019-10-07 05:00 1.86 43 545 (1994) 13 (2018) 79 13 18 27 31 46 86 100 147 411
2019-10-07 04:30 1.86 43 545 (1994) 13 (2018) 79 13 18 27 31 46 86 100 147 411
2019-10-07 04:00 1.86 43 545 (1994) 13 (2018) 79 13 18 27 31 46 86 100 147 411
2019-10-07 03:30 1.86 43 545 (1994) 13 (2018) 79 13 18 27 31 46 86 100 147 411
2019-10-07 03:00 1.86 43 545 (1994) 13 (2018) 79 13 18 27 31 46 86 100 147 411
2019-10-07 02:30 1.86 43 545 (1994) 13 (2018) 79 13 18 27 31 46 86 100 147 411
2019-10-07 02:00 1.86 43 545 (1994) 13 (2018) 79 13 18 27 31 46 86 100 147 411
2019-10-07 01:30 1.86 43 545 (1994) 13 (2018) 79 13 18 27 31 46 86 100 147 411
2019-10-07 01:00 1.85 42 545 (1994) 13 (2018) 79 13 18 27 31 46 86 100 147 411
2019-10-07 00:30 1.85 42 545 (1994) 13 (2018) 79 13 18 27 31 46 86 100 147 411
2019-10-07 00:00 1.85 42 545 (1994) 13 (2018) 79 13 18 27 31 46 86 100 147 411

A total of 344 rows are displayed for years 1984 through 2018.

Trips for Saint Francis River (Missouri), Saco (07036100)

DateStartEndDistanceConditionDischargeHeightFishingDetails

A total of 0 rows are displayed.

Condition Descriptions

Fishing Conditions

Fish Species

Notes

Classic Trip List

The classic River Trips application is still available for use. It is updated with the new system using a data retrofit. It is no longer maintained. The original River Trips application is no longer updated (as of 1 Dec 2016) but can be checked for errors or for the condition of the data before it was converted to the new system.